createdAt,value
2022-08-20T00:02:16.674Z,54.39
2022-08-20T00:04:45.709Z,54.22
2022-08-20T00:07:14.585Z,54.30
2022-08-20T00:09:43.198Z,53.93
2022-08-20T00:12:12.567Z,54.32
2022-08-20T00:14:41.237Z,54.11
2022-08-20T00:17:11.103Z,54.70
2022-08-20T00:19:39.567Z,54.41
2022-08-20T00:22:08.029Z,54.61
2022-08-20T00:24:36.503Z,54.22
2022-08-20T00:27:05.145Z,54.12
2022-08-20T00:29:33.597Z,54.57
2022-08-20T00:32:02.229Z,54.00
2022-08-20T00:34:32.084Z,54.21
2022-08-20T00:37:00.526Z,54.26
2022-08-20T00:39:29.009Z,54.51
2022-08-20T00:41:57.474Z,54.54
2022-08-20T00:44:25.894Z,54.09
2022-08-20T00:46:54.993Z,54.08
2022-08-20T00:49:25.932Z,54.33
2022-08-20T00:51:58.766Z,53.91
2022-08-20T00:54:31.348Z,54.27
2022-08-20T00:57:03.585Z,54.30
2022-08-20T00:59:35.135Z,53.92
2022-08-20T01:02:03.734Z,54.14
2022-08-20T01:04:34.173Z,54.30
2022-08-20T01:07:05.409Z,54.14
2022-08-20T01:09:57.628Z,53.83
2022-08-20T01:12:23.752Z,54.25
2022-08-20T01:14:52.207Z,54.19
2022-08-20T01:17:23.615Z,54.37
2022-08-20T01:19:55.844Z,54.22
2022-08-20T01:22:43.842Z,54.32
2022-08-20T01:25:32.596Z,54.71
2022-08-20T01:28:02.604Z,54.56
2022-08-20T01:30:31.051Z,54.63
2022-08-20T01:32:59.665Z,54.73
2022-08-20T01:35:28.078Z,54.74
2022-08-20T01:37:57.069Z,55.13
2022-08-20T01:40:52.064Z,54.80
2022-08-20T01:43:22.113Z,54.87
2022-08-20T01:45:53.021Z,54.85
2022-08-20T01:48:22.013Z,54.95
2022-08-20T01:50:57.044Z,54.37
2022-08-20T01:53:29.724Z,54.84
2022-08-20T01:55:58.296Z,54.76
2022-08-20T01:58:29.745Z,54.76
2022-08-20T02:00:58.561Z,54.74
2022-08-20T02:03:27.155Z,54.59
2022-08-20T02:05:55.692Z,54.41
2022-08-20T02:08:24.771Z,54.51
2022-08-20T02:10:53.272Z,54.67
2022-08-20T02:13:21.977Z,54.65
2022-08-20T02:15:51.995Z,54.38
2022-08-20T02:18:21.019Z,54.84
2022-08-20T02:20:49.798Z,54.66
2022-08-20T02:23:18.902Z,54.63
2022-08-20T02:25:48.493Z,54.78
2022-08-20T02:28:19.816Z,54.44
2022-08-20T02:30:51.747Z,54.25
2022-08-20T02:33:22.341Z,54.79
2022-08-20T02:35:53.425Z,54.40
2022-08-20T02:38:22.173Z,54.68
2022-08-20T02:40:50.698Z,54.37
2022-08-20T02:43:20.243Z,54.70
2022-08-20T02:45:48.751Z,54.35
2022-08-20T02:48:21.115Z,54.31
2022-08-20T02:50:52.371Z,54.61
2022-08-20T02:53:20.843Z,54.09
2022-08-20T02:55:49.459Z,54.40
2022-08-20T02:58:18.019Z,54.00
2022-08-20T03:00:46.789Z,54.50
2022-08-20T03:03:15.673Z,53.93
2022-08-20T03:05:46.132Z,54.16
2022-08-20T03:08:15.000Z,54.46
2022-08-20T03:10:44.819Z,54.16
2022-08-20T03:13:13.614Z,54.31
2022-08-20T03:15:43.801Z,54.02
2022-08-20T03:18:12.320Z,54.08
2022-08-20T03:20:41.190Z,54.28
2022-08-20T03:23:11.043Z,54.28
2022-08-20T03:25:39.495Z,53.83
2022-08-20T03:28:07.958Z,54.34
2022-08-20T03:30:36.450Z,54.03
2022-08-20T03:33:05.207Z,54.22
2022-08-20T03:35:34.042Z,54.14
2022-08-20T03:38:02.526Z,53.88
2022-08-20T03:40:34.378Z,53.99
2022-08-20T03:43:03.066Z,53.46
2022-08-20T03:45:32.687Z,53.78
2022-08-20T03:48:01.742Z,53.88
2022-08-20T03:50:31.900Z,53.37
2022-08-20T03:53:00.673Z,53.70
2022-08-20T03:55:30.150Z,53.81
2022-08-20T03:58:03.127Z,53.58
2022-08-20T04:00:35.640Z,53.45
2022-08-20T04:03:04.788Z,53.96
2022-08-20T04:05:34.639Z,53.45
2022-08-20T04:08:03.649Z,53.63
2022-08-20T04:10:32.303Z,53.34
2022-08-20T04:13:02.198Z,53.62
2022-08-20T04:15:32.459Z,53.33
2022-08-20T04:18:01.065Z,53.49
2022-08-20T04:20:29.515Z,53.28
2022-08-20T04:22:59.369Z,53.36
2022-08-20T04:25:29.689Z,53.46
2022-08-20T04:27:59.092Z,53.66
2022-08-20T04:30:29.312Z,53.70
2022-08-20T04:32:59.558Z,53.41
2022-08-20T04:35:28.602Z,53.75
2022-08-20T04:38:01.120Z,54.14
2022-08-20T04:40:47.729Z,54.56
2022-08-20T04:43:16.298Z,54.34
2022-08-20T04:45:47.213Z,53.94
2022-08-20T04:48:15.782Z,53.97
2022-08-20T04:50:47.092Z,53.74
2022-08-20T04:53:21.660Z,53.59
2022-08-20T04:55:53.561Z,54.02
2022-08-20T04:58:27.422Z,53.93
2022-08-20T05:01:01.160Z,53.60
2022-08-20T05:03:30.334Z,54.26
2022-08-20T05:05:59.016Z,53.44
2022-08-20T05:08:27.614Z,53.65
2022-08-20T05:11:06.592Z,53.55
2022-08-20T05:13:44.866Z,53.84
2022-08-20T05:16:15.374Z,53.80
2022-08-20T05:18:44.684Z,54.22
2022-08-20T05:21:20.675Z,54.04
2022-08-20T05:23:49.614Z,54.22
2022-08-20T05:26:20.444Z,53.96
2022-08-20T05:28:58.035Z,54.04
2022-08-20T05:31:31.863Z,53.56
2022-08-20T05:34:07.068Z,54.11
2022-08-20T05:36:35.480Z,53.79
2022-08-20T05:39:04.225Z,54.00
2022-08-20T05:41:32.647Z,53.95
2022-08-20T05:44:01.963Z,54.04
2022-08-20T05:46:32.341Z,54.10
2022-08-20T05:49:01.985Z,53.97
2022-08-20T05:51:30.867Z,53.69
2022-08-20T05:53:59.935Z,53.96
2022-08-20T05:56:31.324Z,53.81
2022-08-20T05:59:02.602Z,54.08
2022-08-20T06:01:32.686Z,54.05
2022-08-20T06:04:18.793Z,53.93
2022-08-20T06:06:47.745Z,53.94
2022-08-20T06:09:31.099Z,53.98
2022-08-20T06:12:02.341Z,53.96
2022-08-20T06:14:31.430Z,53.83
2022-08-20T06:17:06.530Z,53.74
2022-08-20T06:19:35.766Z,53.55
2022-08-20T06:22:18.407Z,53.73
2022-08-20T06:24:53.028Z,53.72
2022-08-20T06:27:21.495Z,53.90
2022-08-20T06:29:50.149Z,54.04
2022-08-20T06:32:32.158Z,54.06
2022-08-20T06:35:03.735Z,54.28
2022-08-20T06:37:33.049Z,54.25
2022-08-20T06:40:02.767Z,53.82
2022-08-20T06:42:31.322Z,54.11
2022-08-20T06:45:04.725Z,54.17
2022-08-20T06:47:34.845Z,54.27
2022-08-20T06:50:03.342Z,54.15
2022-08-20T06:52:52.438Z,54.20
2022-08-20T06:55:20.663Z,54.19
2022-08-20T06:57:49.369Z,54.14
2022-08-20T07:00:21.076Z,54.14
2022-08-20T07:02:50.929Z,54.20
2022-08-20T07:05:19.627Z,54.03
2022-08-20T07:07:49.672Z,53.85
2022-08-20T07:10:19.732Z,53.64
2022-08-20T07:12:50.175Z,53.86
2022-08-20T07:15:19.814Z,53.96
2022-08-20T07:17:52.228Z,53.35
2022-08-20T07:20:21.173Z,53.67
2022-08-20T07:22:49.860Z,54.11
2022-08-20T07:25:20.300Z,53.90
2022-08-20T07:27:49.499Z,53.49
2022-08-20T07:30:56.757Z,53.40
2022-08-20T07:33:28.567Z,53.60
2022-08-20T07:35:58.028Z,53.71
2022-08-20T07:38:30.276Z,53.70
2022-08-20T07:41:00.711Z,53.21
2022-08-20T07:43:29.720Z,53.51
2022-08-20T07:46:00.871Z,53.47
2022-08-20T07:48:32.455Z,53.33
2022-08-20T07:51:03.720Z,52.98
2022-08-20T07:53:35.631Z,53.46
2022-08-20T07:56:07.016Z,53.24
2022-08-20T07:58:38.452Z,53.33
2022-08-20T08:01:07.815Z,53.24
2022-08-20T08:03:40.762Z,53.27
2022-08-20T08:06:29.684Z,53.30
2022-08-20T08:09:01.608Z,53.28
2022-08-20T08:11:30.105Z,53.39
2022-08-20T08:13:58.605Z,53.32
2022-08-20T08:16:27.053Z,53.89
2022-08-20T08:18:58.528Z,53.47
2022-08-20T08:21:27.074Z,52.91
2022-08-20T08:23:56.213Z,52.73
2022-08-20T08:26:25.871Z,52.98
2022-08-20T08:28:54.749Z,53.10
2022-08-20T08:31:25.605Z,52.95
2022-08-20T08:33:54.136Z,53.05
2022-08-20T08:36:27.118Z,53.05
2022-08-20T08:38:56.849Z,53.46
2022-08-20T08:41:32.610Z,53.61
2022-08-20T08:44:05.856Z,52.98
2022-08-20T08:46:37.113Z,53.10
2022-08-20T08:49:05.831Z,53.19
2022-08-20T08:51:39.810Z,53.13
2022-08-20T08:54:08.366Z,53.46
2022-08-20T08:56:37.854Z,53.05
2022-08-20T08:59:08.812Z,52.62
2022-08-20T09:01:55.465Z,52.59
2022-08-20T09:04:25.818Z,52.55
2022-08-20T09:06:55.797Z,53.19
2022-08-20T09:09:27.435Z,53.09
2022-08-20T09:12:05.672Z,53.75
2022-08-20T09:14:34.245Z,53.53
2022-08-20T09:17:02.829Z,53.73
2022-08-20T09:19:31.339Z,54.32
2022-08-20T09:22:01.231Z,53.89
2022-08-20T09:24:30.017Z,53.75
2022-08-20T09:26:58.538Z,53.82
2022-08-20T09:29:27.125Z,54.39
2022-08-20T09:32:06.453Z,54.67
2022-08-20T09:34:38.141Z,54.52
2022-08-20T09:37:08.021Z,54.75
2022-08-20T09:39:37.195Z,54.02
2022-08-20T09:42:11.204Z,54.16
2022-08-20T09:44:40.051Z,53.40
2022-08-20T09:47:08.705Z,52.98
2022-08-20T09:49:37.422Z,52.53
2022-08-20T09:52:09.480Z,53.29
2022-08-20T09:54:38.621Z,53.38
2022-08-20T09:57:13.774Z,53.41
2022-08-20T09:59:42.408Z,52.01
2022-08-20T10:02:11.344Z,51.36
2022-08-20T10:04:40.216Z,51.14
2022-08-20T10:07:11.315Z,51.80
2022-08-20T10:09:39.865Z,51.98
2022-08-20T10:12:09.260Z,51.05
2022-08-20T10:14:38.158Z,51.39
2022-08-20T10:17:06.827Z,51.45
2022-08-20T10:19:35.408Z,51.68
2022-08-20T10:22:03.911Z,53.06
2022-08-20T10:24:33.730Z,53.27
2022-08-20T10:27:02.916Z,53.02
2022-08-20T10:29:32.023Z,52.63
2022-08-20T10:32:12.268Z,52.44
2022-08-20T10:34:41.308Z,52.03
2022-08-20T10:37:10.344Z,52.29
2022-08-20T10:39:40.307Z,52.32
2022-08-20T10:42:08.955Z,52.46
2022-08-20T10:44:37.463Z,52.23
2022-08-20T10:47:20.125Z,52.15
2022-08-20T10:49:49.173Z,51.97
2022-08-20T10:52:17.728Z,51.09
2022-08-20T10:54:47.733Z,50.67
2022-08-20T10:57:17.912Z,51.46
2022-08-20T10:59:47.870Z,51.39
2022-08-20T11:02:16.836Z,51.01
2022-08-20T11:04:45.494Z,50.79
2022-08-20T11:07:16.609Z,51.53
2022-08-20T11:09:45.276Z,51.86
2022-08-20T11:12:15.080Z,51.73
2022-08-20T11:14:43.693Z,52.79
2022-08-20T11:17:12.203Z,52.44
2022-08-20T11:19:41.679Z,52.28
2022-08-20T11:22:10.548Z,52.53
2022-08-20T11:24:39.586Z,52.09
2022-08-20T11:27:08.838Z,52.81
2022-08-20T11:29:39.690Z,51.53
2022-08-20T11:32:10.714Z,51.60
2022-08-20T11:34:39.197Z,50.18
2022-08-20T11:37:07.720Z,50.92
2022-08-20T11:39:39.850Z,51.16
2022-08-20T11:42:11.397Z,53.25
2022-08-20T11:44:41.274Z,52.83
2022-08-20T11:47:09.792Z,53.39
2022-08-20T11:49:38.587Z,52.90
2022-08-20T11:52:07.690Z,53.97
2022-08-20T11:54:40.527Z,54.29
2022-08-20T11:57:09.266Z,55.38
2022-08-20T11:59:37.778Z,54.26
2022-08-20T12:02:12.138Z,54.34
2022-08-20T12:04:41.037Z,55.19
2022-08-20T12:07:11.336Z,56.33
2022-08-20T12:09:40.042Z,55.93
2022-08-20T12:12:15.867Z,56.09
2022-08-20T12:14:44.450Z,55.75
2022-08-20T12:17:17.802Z,56.10
2022-08-20T12:19:46.536Z,56.03
2022-08-20T12:22:23.091Z,55.16
2022-08-20T12:24:54.428Z,54.15
2022-08-20T12:27:25.005Z,54.23
2022-08-20T12:29:54.656Z,55.28
2022-08-20T12:32:26.278Z,54.50
2022-08-20T12:34:55.067Z,55.00
2022-08-20T12:37:24.762Z,55.69
2022-08-20T12:40:00.470Z,56.38
2022-08-20T12:42:30.655Z,56.24
2022-08-20T12:44:59.460Z,56.17
2022-08-20T12:47:31.120Z,56.75
2022-08-20T12:50:01.538Z,56.10
2022-08-20T12:52:31.017Z,55.76
2022-08-20T12:54:59.842Z,56.51
2022-08-20T12:57:32.217Z,57.53
2022-08-20T13:00:03.826Z,58.57
2022-08-20T13:02:34.831Z,58.56
2022-08-20T13:05:05.216Z,57.49
2022-08-20T13:07:34.095Z,58.07
2022-08-20T13:10:02.603Z,57.98
2022-08-20T13:12:31.138Z,57.01
2022-08-20T13:15:00.033Z,56.94
2022-08-20T13:17:38.997Z,56.75
2022-08-20T13:20:17.081Z,58.75
2022-08-20T13:22:45.463Z,57.64
2022-08-20T13:25:14.535Z,57.71
2022-08-20T13:27:43.647Z,57.06
2022-08-20T13:30:14.864Z,57.63
2022-08-20T13:32:43.419Z,57.60
2022-08-20T13:35:13.542Z,57.57
2022-08-20T13:37:42.505Z,57.45
2022-08-20T13:40:12.836Z,57.27
2022-08-20T13:42:41.405Z,56.75
2022-08-20T13:45:11.232Z,56.95
2022-08-20T13:47:42.715Z,56.22
2022-08-20T13:50:15.409Z,56.45
2022-08-20T13:52:44.442Z,55.92
2022-08-20T13:55:17.578Z,55.76
2022-08-20T13:57:47.311Z,56.64
2022-08-20T14:00:18.431Z,57.06
2022-08-20T14:02:47.073Z,56.48
2022-08-20T14:05:18.410Z,55.60
2022-08-20T14:07:48.217Z,55.25
2022-08-20T14:10:18.768Z,55.02
2022-08-20T14:12:48.395Z,54.77
2022-08-20T14:15:17.300Z,54.83
2022-08-20T14:17:51.635Z,54.93
2022-08-20T14:20:23.381Z,55.34
2022-08-20T14:22:51.923Z,54.70
2022-08-20T14:25:21.626Z,55.31
2022-08-20T14:27:50.642Z,55.19
2022-08-20T14:30:21.325Z,55.16
2022-08-20T14:32:50.018Z,55.10
2022-08-20T14:35:18.724Z,55.25
2022-08-20T14:37:52.134Z,55.01
2022-08-20T14:40:22.285Z,54.71
2022-08-20T14:42:51.571Z,54.93
2022-08-20T14:45:23.466Z,55.11
2022-08-20T14:47:54.337Z,54.82
2022-08-20T14:50:25.518Z,55.15
2022-08-20T14:52:55.809Z,54.70
2022-08-20T14:55:27.378Z,55.00
2022-08-20T14:57:56.055Z,55.31
2022-08-20T15:00:26.773Z,55.66
2022-08-20T15:02:55.665Z,55.20
2022-08-20T15:05:24.789Z,55.39
2022-08-20T15:07:54.638Z,55.47
2022-08-20T15:10:25.516Z,55.33
2022-08-20T15:12:54.001Z,55.23
2022-08-20T15:15:23.000Z,55.22
2022-08-20T15:17:53.775Z,55.31
2022-08-20T15:20:25.741Z,55.17
2022-08-20T15:22:55.756Z,55.16
2022-08-20T15:25:25.923Z,54.97
2022-08-20T15:28:00.652Z,54.99
2022-08-20T15:30:31.324Z,54.76
2022-08-20T15:33:00.360Z,54.61
2022-08-20T15:35:29.525Z,54.67
2022-08-20T15:38:00.612Z,54.55
2022-08-20T15:40:31.033Z,54.28
2022-08-20T15:43:00.008Z,54.22
2022-08-20T15:45:28.562Z,54.30
2022-08-20T15:48:02.672Z,54.04
2022-08-20T15:51:01.791Z,54.14
2022-08-20T15:53:36.455Z,54.12
2022-08-20T15:56:10.358Z,54.01
2022-08-20T15:58:48.632Z,53.83
2022-08-20T16:01:26.145Z,53.43
2022-08-20T16:04:17.889Z,53.59
2022-08-20T16:06:46.386Z,53.39
2022-08-20T16:09:38.106Z,53.54
2022-08-20T16:12:10.325Z,53.63
2022-08-20T16:14:40.527Z,52.95
2022-08-20T16:17:10.845Z,52.72
2022-08-20T16:19:49.198Z,52.81
2022-08-20T16:22:19.003Z,52.69
2022-08-20T16:24:48.974Z,52.33
2022-08-20T16:27:25.433Z,53.06
2022-08-20T16:29:58.633Z,52.99
2022-08-20T16:32:39.533Z,52.91
2022-08-20T16:35:31.986Z,53.36
2022-08-20T16:38:11.367Z,53.28
2022-08-20T16:40:49.503Z,52.55
2022-08-20T16:43:24.625Z,52.19
2022-08-20T16:45:56.521Z,52.94
2022-08-20T16:48:26.473Z,52.77
2022-08-20T16:51:00.006Z,52.70
2022-08-20T16:53:28.539Z,52.80
2022-08-20T16:55:58.604Z,52.78
2022-08-20T16:58:27.073Z,52.24
2022-08-20T17:01:11.598Z,52.61
2022-08-20T17:03:41.007Z,52.55
2022-08-20T17:06:19.259Z,52.58
2022-08-20T17:08:50.629Z,52.86
2022-08-20T17:11:29.121Z,53.01
2022-08-20T17:14:10.474Z,52.81
2022-08-20T17:16:43.348Z,52.94
2022-08-20T17:19:19.751Z,53.02
2022-08-20T17:21:49.849Z,53.15
2022-08-20T17:24:26.134Z,52.73
2022-08-20T17:27:01.971Z,53.10
2022-08-20T17:29:31.925Z,53.48
2022-08-20T17:32:02.581Z,53.41
2022-08-20T17:34:32.755Z,53.38
2022-08-20T17:37:03.916Z,53.38
2022-08-20T17:39:32.630Z,53.20
2022-08-20T17:42:09.053Z,53.40
2022-08-20T17:44:42.390Z,53.11
2022-08-20T17:47:15.445Z,52.65
2022-08-20T17:49:57.451Z,52.84
2022-08-20T17:52:42.343Z,52.63
2022-08-20T17:55:10.840Z,52.63
2022-08-20T17:57:42.189Z,52.75
2022-08-20T18:00:14.503Z,52.53
2022-08-20T18:02:43.291Z,52.29
2022-08-20T18:05:15.816Z,52.12
2022-08-20T18:07:49.956Z,52.22
2022-08-20T18:10:21.757Z,52.12
2022-08-20T18:12:58.042Z,52.54
2022-08-20T18:15:28.357Z,52.65
2022-08-20T18:18:18.423Z,52.72
2022-08-20T18:21:25.198Z,52.83
2022-08-20T18:23:56.542Z,52.86
2022-08-20T18:26:27.905Z,53.24
2022-08-20T18:28:59.545Z,53.15
2022-08-20T18:31:30.195Z,52.89
2022-08-20T18:33:58.808Z,53.13
2022-08-20T18:36:28.995Z,53.17
2022-08-20T18:39:02.212Z,53.13
2022-08-20T18:41:32.710Z,53.21
2022-08-20T18:44:09.225Z,53.21
2022-08-20T18:46:38.124Z,53.30
2022-08-20T18:49:08.616Z,53.33
2022-08-20T18:51:41.013Z,53.77
2022-08-20T18:54:09.507Z,53.50
2022-08-20T18:56:41.350Z,53.95
2022-08-20T18:59:16.695Z,54.27
2022-08-20T19:01:47.314Z,54.01
2022-08-20T19:04:33.812Z,54.05
2022-08-20T19:07:04.757Z,54.46
2022-08-20T19:09:57.279Z,54.75
2022-08-20T19:12:54.825Z,54.38
2022-08-20T19:15:26.836Z,54.19
2022-08-20T19:18:02.024Z,54.08
2022-08-20T19:20:32.879Z,54.36
2022-08-20T19:23:06.797Z,54.08
2022-08-20T19:25:39.798Z,54.20
2022-08-20T19:28:18.303Z,53.93
2022-08-20T19:30:48.096Z,53.94
2022-08-20T19:33:25.881Z,53.57
2022-08-20T19:36:13.939Z,53.85
2022-08-20T19:38:50.049Z,53.64
2022-08-20T19:41:30.908Z,53.67
2022-08-20T19:44:01.314Z,53.54
2022-08-20T19:46:35.030Z,53.90
2022-08-20T19:49:19.801Z,54.21
2022-08-20T19:51:57.196Z,54.21
2022-08-20T19:54:28.872Z,54.71
2022-08-20T19:56:57.679Z,54.77
2022-08-20T19:59:26.381Z,54.81
2022-08-20T20:02:00.387Z,55.18
2022-08-20T20:04:30.036Z,55.15
2022-08-20T20:06:59.161Z,54.93
2022-08-20T20:09:29.554Z,54.95
2022-08-20T20:12:00.391Z,54.81
2022-08-20T20:14:33.482Z,55.49
2022-08-20T20:17:05.797Z,54.65
2022-08-20T20:19:46.909Z,54.40
2022-08-20T20:22:19.978Z,54.49
2022-08-20T20:24:51.324Z,54.29
2022-08-20T20:27:23.291Z,54.35
2022-08-20T20:29:52.311Z,54.52
2022-08-20T20:32:24.448Z,54.21
2022-08-20T20:34:56.074Z,54.46
2022-08-20T20:37:49.903Z,54.38
2022-08-20T20:40:25.770Z,54.01
2022-08-20T20:43:03.127Z,53.65
2022-08-20T20:45:35.139Z,53.62
2022-08-20T20:48:14.111Z,53.61
2022-08-20T20:50:42.840Z,53.68
2022-08-20T20:53:11.464Z,53.21
2022-08-20T20:55:42.813Z,53.05
2022-08-20T20:58:11.338Z,53.19
2022-08-20T21:00:40.141Z,52.94
2022-08-20T21:03:10.119Z,53.03
2022-08-20T21:05:38.728Z,52.93
2022-08-20T21:08:09.431Z,53.03
2022-08-20T21:10:41.122Z,53.14
2022-08-20T21:13:10.669Z,52.87
2022-08-20T21:15:39.504Z,53.04
2022-08-20T21:18:10.106Z,53.07
2022-08-20T21:20:38.611Z,53.24
2022-08-20T21:23:07.147Z,53.53
2022-08-20T21:25:35.725Z,53.13
2022-08-20T21:28:05.503Z,53.50
2022-08-20T21:30:34.321Z,53.39
2022-08-20T21:33:02.883Z,53.53
2022-08-20T21:35:33.011Z,53.87
2022-08-20T21:38:01.483Z,54.16
2022-08-20T21:40:30.035Z,54.53
2022-08-20T21:42:59.519Z,54.50
2022-08-20T21:45:29.245Z,54.82
2022-08-20T21:47:58.237Z,54.90
2022-08-20T21:50:27.312Z,54.53
2022-08-20T21:53:12.257Z,54.37
2022-08-20T21:55:41.633Z,54.42
2022-08-20T21:58:10.557Z,54.21
2022-08-20T22:00:55.980Z,54.02
2022-08-20T22:03:26.751Z,53.93
2022-08-20T22:05:55.427Z,53.78
2022-08-20T22:08:28.291Z,53.60
2022-08-20T22:10:57.926Z,53.39
2022-08-20T22:13:28.333Z,53.44
2022-08-20T22:15:56.960Z,53.40
2022-08-20T22:18:25.580Z,53.48
2022-08-20T22:20:54.626Z,53.33
2022-08-20T22:23:24.495Z,53.34
2022-08-20T22:25:52.984Z,53.44
2022-08-20T22:28:21.968Z,53.44
2022-08-20T22:30:50.407Z,53.71
2022-08-20T22:33:23.340Z,53.77
2022-08-20T22:35:54.912Z,53.58
2022-08-20T22:38:24.964Z,53.91
2022-08-20T22:40:54.187Z,54.39
2022-08-20T22:43:23.274Z,54.56
2022-08-20T22:45:53.730Z,54.64
2022-08-20T22:48:22.722Z,54.67
2022-08-20T22:50:51.295Z,54.57
2022-08-20T22:53:20.109Z,54.58
2022-08-20T22:55:50.051Z,54.89
2022-08-20T22:58:18.824Z,55.11
2022-08-20T23:00:59.255Z,55.41
2022-08-20T23:03:40.131Z,55.70
2022-08-20T23:06:09.261Z,55.73
2022-08-20T23:08:38.148Z,55.68
2022-08-20T23:11:08.144Z,55.65
2022-08-20T23:13:36.606Z,55.75
2022-08-20T23:16:05.542Z,55.33
2022-08-20T23:18:34.250Z,55.06
2022-08-20T23:21:02.678Z,54.83
2022-08-20T23:23:31.633Z,54.59
2022-08-20T23:26:00.183Z,54.60
2022-08-20T23:28:30.097Z,54.71
2022-08-20T23:30:58.797Z,54.46
2022-08-20T23:33:27.233Z,54.74
2022-08-20T23:35:55.696Z,54.74
2022-08-20T23:38:24.116Z,54.92
2022-08-20T23:40:52.672Z,54.96
2022-08-20T23:43:21.156Z,54.95
2022-08-20T23:45:51.111Z,54.66
2022-08-20T23:48:19.525Z,54.81
2022-08-20T23:50:48.066Z,54.81
2022-08-20T23:53:16.516Z,54.94
2022-08-20T23:55:45.147Z,54.90
2022-08-20T23:58:13.676Z,55.04
